sensor_id;sensor_type;location;lat;lon;timestamp;pressure;altitude;pressure_sealevel;temperature;humidity
48874;BME280;66155;46.204;5.220;2023-07-13T00:04:12;98818.91;;;21.82;57.94
48874;BME280;66155;46.204;5.220;2023-07-13T00:09:15;98809.69;;;21.88;57.47
48874;BME280;66155;46.204;5.220;2023-07-13T00:14:16;98809.81;;;21.92;57.21
48874;BME280;66155;46.204;5.220;2023-07-13T00:19:17;98814.34;;;21.91;57.23
48874;BME280;66155;46.204;5.220;2023-07-13T00:24:18;98816.06;;;21.96;56.15
48874;BME280;66155;46.204;5.220;2023-07-13T00:29:25;98810.44;;;21.89;55.22
48874;BME280;66155;46.204;5.220;2023-07-13T00:34:26;98823.09;;;21.83;54.49
48874;BME280;66155;46.204;5.220;2023-07-13T00:39:26;98837.31;;;21.87;53.62
48874;BME280;66155;46.204;5.220;2023-07-13T00:44:27;98822.47;;;21.86;53.26
48874;BME280;66155;46.204;5.220;2023-07-13T00:49:30;98819.97;;;21.90;52.82
48874;BME280;66155;46.204;5.220;2023-07-13T00:54:39;98839.75;;;22.01;52.06
48874;BME280;66155;46.204;5.220;2023-07-13T00:59:43;98831.75;;;22.10;51.77
48874;BME280;66155;46.204;5.220;2023-07-13T01:04:45;98837.03;;;22.10;51.43
48874;BME280;66155;46.204;5.220;2023-07-13T01:09:46;98825.22;;;22.07;50.96
48874;BME280;66155;46.204;5.220;2023-07-13T01:14:46;98825.66;;;22.09;50.77
48874;BME280;66155;46.204;5.220;2023-07-13T01:19:47;98841.59;;;22.09;50.92
48874;BME280;66155;46.204;5.220;2023-07-13T01:24:47;98838.03;;;22.05;50.89
48874;BME280;66155;46.204;5.220;2023-07-13T01:29:48;98851.28;;;22.05;50.70
48874;BME280;66155;46.204;5.220;2023-07-13T01:34:51;98842.66;;;22.08;51.20
48874;BME280;66155;46.204;5.220;2023-07-13T01:39:54;98835.16;;;22.19;50.86
48874;BME280;66155;46.204;5.220;2023-07-13T01:44:54;98851.34;;;22.26;50.89
48874;BME280;66155;46.204;5.220;2023-07-13T01:49:55;98848.69;;;22.26;51.03
48874;BME280;66155;46.204;5.220;2023-07-13T01:54:55;98841.09;;;22.16;50.95
48874;BME280;66155;46.204;5.220;2023-07-13T01:59:56;98853.09;;;22.13;51.29
48874;BME280;66155;46.204;5.220;2023-07-13T02:04:57;98834.25;;;22.06;52.11
48874;BME280;66155;46.204;5.220;2023-07-13T02:09:57;98847.53;;;22.06;52.38
48874;BME280;66155;46.204;5.220;2023-07-13T02:14:58;98846.66;;;21.84;52.73
48874;BME280;66155;46.204;5.220;2023-07-13T02:19:58;98867.75;;;21.81;52.79
48874;BME280;66155;46.204;5.220;2023-07-13T02:24:59;98859.31;;;21.79;52.92
48874;BME280;66155;46.204;5.220;2023-07-13T02:29:59;98856.66;;;21.88;52.80
48874;BME280;66155;46.204;5.220;2023-07-13T02:35:00;98856.03;;;21.91;52.94
48874;BME280;66155;46.204;5.220;2023-07-13T02:40:01;98863.22;;;21.81;53.22
48874;BME280;66155;46.204;5.220;2023-07-13T02:45:08;98861.22;;;21.78;52.71
48874;BME280;66155;46.204;5.220;2023-07-13T02:50:09;98856.38;;;21.80;53.04
48874;BME280;66155;46.204;5.220;2023-07-13T02:55:09;98856.38;;;21.80;52.77
48874;BME280;66155;46.204;5.220;2023-07-13T03:00:10;98869.03;;;21.75;52.61
48874;BME280;66155;46.204;5.220;2023-07-13T03:05:11;98862.00;;;21.61;52.97
48874;BME280;66155;46.204;5.220;2023-07-13T03:10:12;98874.34;;;21.49;53.35
48874;BME280;66155;46.204;5.220;2023-07-13T03:15:13;98874.50;;;21.43;53.26
48874;BME280;66155;46.204;5.220;2023-07-13T03:20:14;98874.50;;;21.43;53.26
48874;BME280;66155;46.204;5.220;2023-07-13T03:25:14;98874.97;;;21.54;53.31
48874;BME280;66155;46.204;5.220;2023-07-13T03:30:15;98869.06;;;21.57;53.33
48874;BME280;66155;46.204;5.220;2023-07-13T03:35:15;98887.28;;;21.68;53.36
48874;BME280;66155;46.204;5.220;2023-07-13T03:40:16;98881.84;;;21.47;53.90
48874;BME280;66155;46.204;5.220;2023-07-13T03:45:16;98891.50;;;21.25;55.21
48874;BME280;66155;46.204;5.220;2023-07-13T03:50:17;98901.63;;;21.14;56.81
48874;BME280;66155;46.204;5.220;2023-07-13T03:55:17;98884.75;;;20.93;56.99
48874;BME280;66155;46.204;5.220;2023-07-13T04:00:18;98893.50;;;20.84;57.31
48874;BME280;66155;46.204;5.220;2023-07-13T04:05:18;98891.31;;;20.86;57.83
48874;BME280;66155;46.204;5.220;2023-07-13T04:10:19;98890.06;;;20.84;58.20
48874;BME280;66155;46.204;5.220;2023-07-13T04:15:19;98886.47;;;20.80;58.58
48874;BME280;66155;46.204;5.220;2023-07-13T04:20:20;98883.03;;;20.79;58.66
48874;BME280;66155;46.204;5.220;2023-07-13T04:25:21;98899.22;;;20.78;58.62
48874;BME280;66155;46.204;5.220;2023-07-13T04:30:22;98894.38;;;20.71;58.98
48874;BME280;66155;46.204;5.220;2023-07-13T04:35:23;98885.66;;;20.70;58.33
48874;BME280;66155;46.204;5.220;2023-07-13T04:40:23;98905.47;;;20.91;57.93
48874;BME280;66155;46.204;5.220;2023-07-13T04:45:24;98914.22;;;21.00;57.37
48874;BME280;66155;46.204;5.220;2023-07-13T04:50:24;98923.72;;;21.01;56.91
48874;BME280;66155;46.204;5.220;2023-07-13T04:55:25;98907.69;;;21.06;56.54
48874;BME280;66155;46.204;5.220;2023-07-13T05:00:26;98908.16;;;21.17;55.96
48874;BME280;66155;46.204;5.220;2023-07-13T05:05:26;98908.63;;;21.27;55.76
48874;BME280;66155;46.204;5.220;2023-07-13T05:10:27;98910.97;;;21.12;55.50
48874;BME280;66155;46.204;5.220;2023-07-13T05:15:27;98920.16;;;20.97;55.94
48874;BME280;66155;46.204;5.220;2023-07-13T05:20:28;98924.66;;;20.96;56.12
48874;BME280;66155;46.204;5.220;2023-07-13T05:25:29;98924.81;;;20.82;55.99
48874;BME280;66155;46.204;5.220;2023-07-13T05:30:29;98936.91;;;20.75;56.23
48874;BME280;66155;46.204;5.220;2023-07-13T05:35:30;98925.75;;;20.55;55.99
48874;BME280;66155;46.204;5.220;2023-07-13T05:40:31;98937.53;;;20.63;56.02
48874;BME280;66155;46.204;5.220;2023-07-13T05:45:31;98939.53;;;20.66;55.86
48874;BME280;66155;46.204;5.220;2023-07-13T05:50:31;98948.28;;;20.66;55.47
48874;BME280;66155;46.204;5.220;2023-07-13T05:55:32;98957.28;;;20.65;55.53
48874;BME280;66155;46.204;5.220;2023-07-13T06:00:33;98961.16;;;20.59;55.38
48874;BME280;66155;46.204;5.220;2023-07-13T06:05:35;98969.75;;;20.65;55.17
48874;BME280;66155;46.204;5.220;2023-07-13T06:10:37;98967.41;;;20.63;55.45
48874;BME280;66155;46.204;5.220;2023-07-13T06:15:37;98968.66;;;20.66;54.83
48874;BME280;66155;46.204;5.220;2023-07-13T06:20:38;98976.03;;;20.78;54.88
48874;BME280;66155;46.204;5.220;2023-07-13T06:25:40;98974.47;;;20.85;54.57
48874;BME280;66155;46.204;5.220;2023-07-13T06:30:40;98983.88;;;21.00;54.26
48874;BME280;66155;46.204;5.220;2023-07-13T06:35:41;98992.31;;;21.11;54.03
48874;BME280;66155;46.204;5.220;2023-07-13T06:40:41;99003.09;;;21.23;53.98
48874;BME280;66155;46.204;5.220;2023-07-13T06:45:44;99008.25;;;21.29;53.97
48874;BME280;66155;46.204;5.220;2023-07-13T06:50:50;99011.91;;;21.50;53.76
48874;BME280;66155;46.204;5.220;2023-07-13T06:55:51;99005.78;;;21.41;53.32
48874;BME280;66155;46.204;5.220;2023-07-13T07:00:52;99010.19;;;21.63;53.44
48874;BME280;66155;46.204;5.220;2023-07-13T07:05:52;99006.28;;;21.95;52.80
48874;BME280;66155;46.204;5.220;2023-07-13T07:10:53;99009.97;;;22.20;52.02
48874;BME280;66155;46.204;5.220;2023-07-13T07:15:54;99023.44;;;22.15;51.91
48874;BME280;66155;46.204;5.220;2023-07-13T07:20:54;99023.59;;;22.19;51.60
48874;BME280;66155;46.204;5.220;2023-07-13T07:25:56;99010.28;;;22.28;50.95
48874;BME280;66155;46.204;5.220;2023-07-13T07:30:57;99007.47;;;22.33;50.94
48874;BME280;66155;46.204;5.220;2023-07-13T07:35:58;99026.19;;;22.45;50.41
48874;BME280;66155;46.204;5.220;2023-07-13T07:41:02;99008.75;;;22.27;50.56
48874;BME280;66155;46.204;5.220;2023-07-13T07:46:03;99006.69;;;22.24;50.81
48874;BME280;66155;46.204;5.220;2023-07-13T07:51:04;99015.28;;;22.20;50.67
48874;BME280;66155;46.204;5.220;2023-07-13T07:56:04;99027.50;;;22.04;50.67
48874;BME280;66155;46.204;5.220;2023-07-13T08:01:06;99028.44;;;21.91;50.70
48874;BME280;66155;46.204;5.220;2023-07-13T08:06:06;99024.84;;;21.87;50.70
48874;BME280;66155;46.204;5.220;2023-07-13T08:11:08;99027.34;;;21.92;50.69
48874;BME280;66155;46.204;5.220;2023-07-13T08:16:09;99030.59;;;22.06;50.79
48874;BME280;66155;46.204;5.220;2023-07-13T08:21:09;99024.53;;;22.06;51.03
48874;BME280;66155;46.204;5.220;2023-07-13T08:26:10;99029.06;;;21.96;50.64
48874;BME280;66155;46.204;5.220;2023-07-13T08:31:10;99032.19;;;21.98;50.94
48874;BME280;66155;46.204;5.220;2023-07-13T08:36:11;99031.25;;;22.03;50.88
48874;BME280;66155;46.204;5.220;2023-07-13T08:41:16;99023.28;;;22.03;50.36
48874;BME280;66155;46.204;5.220;2023-07-13T08:51:40;99026.88;;;22.07;49.57
48874;BME280;66155;46.204;5.220;2023-07-13T08:56:44;99027.63;;;22.16;49.06
48874;BME280;66155;46.204;5.220;2023-07-13T09:07:29;99036.19;;;22.39;48.98
48874;BME280;66155;46.204;5.220;2023-07-13T09:17:55;99030.25;;;22.43;48.33
48874;BME280;66155;46.204;5.220;2023-07-13T09:22:59;99040.88;;;22.51;48.34
48874;BME280;66155;46.204;5.220;2023-07-13T09:33:11;99049.47;;;22.95;48.05
48874;BME280;66155;46.204;5.220;2023-07-13T09:38:14;99047.22;;;23.15;47.74
48874;BME280;66155;46.204;5.220;2023-07-13T09:43:15;99041.75;;;23.11;46.85
48874;BME280;66155;46.204;5.220;2023-07-13T09:48:17;99051.94;;;23.30;46.29
48874;BME280;66155;46.204;5.220;2023-07-13T09:53:19;99059.31;;;23.54;45.10
48874;BME280;66155;46.204;5.220;2023-07-13T09:58:23;99073.75;;;23.45;44.96
48874;BME280;66155;46.204;5.220;2023-07-13T10:03:30;99063.06;;;23.53;43.27
48874;BME280;66155;46.204;5.220;2023-07-13T10:08:36;99072.31;;;23.77;43.73
48874;BME280;66155;46.204;5.220;2023-07-13T10:13:43;99072.06;;;23.70;42.84
48874;BME280;66155;46.204;5.220;2023-07-13T10:18:58;99071.50;;;23.77;41.93
48874;BME280;66155;46.204;5.220;2023-07-13T10:24:15;99077.56;;;23.86;41.30
48874;BME280;66155;46.204;5.220;2023-07-13T10:29:17;99069.94;;;23.84;41.66
48874;BME280;66155;46.204;5.220;2023-07-13T10:34:19;99073.59;;;24.13;41.67
48874;BME280;66155;46.204;5.220;2023-07-13T10:39:24;99072.97;;;23.95;40.97
48874;BME280;66155;46.204;5.220;2023-07-13T10:44:29;99061.13;;;24.05;41.98
48874;BME280;66155;46.204;5.220;2023-07-13T10:49:32;99059.41;;;24.21;40.88
48874;BME280;66155;46.204;5.220;2023-07-13T10:54:33;99071.31;;;24.24;40.95
48874;BME280;66155;46.204;5.220;2023-07-13T10:59:37;99046.25;;;24.37;41.08
48874;BME280;66155;46.204;5.220;2023-07-13T11:04:46;99035.91;;;24.69;40.34
48874;BME280;66155;46.204;5.220;2023-07-13T11:09:56;99035.72;;;24.41;39.83
48874;BME280;66155;46.204;5.220;2023-07-13T11:15:04;99022.84;;;24.31;40.16
48874;BME280;66155;46.204;5.220;2023-07-13T11:35:27;99028.38;;;24.59;39.81
48874;BME280;66155;46.204;5.220;2023-07-13T11:40:29;99014.47;;;24.53;38.25
48874;BME280;66155;46.204;5.220;2023-07-13T11:45:30;99018.94;;;24.61;38.40
48874;BME280;66155;46.204;5.220;2023-07-13T11:50:31;99027.59;;;24.71;37.97
48874;BME280;66155;46.204;5.220;2023-07-13T11:55:31;99026.59;;;24.88;37.50
48874;BME280;66155;46.204;5.220;2023-07-13T12:00:38;99017.81;;;24.87;37.46
48874;BME280;66155;46.204;5.220;2023-07-13T12:05:55;99010.59;;;25.00;36.34
48874;BME280;66155;46.204;5.220;2023-07-13T12:11:04;99015.72;;;24.80;35.62
48874;BME280;66155;46.204;5.220;2023-07-13T12:16:14;99011.72;;;24.86;35.96
48874;BME280;66155;46.204;5.220;2023-07-13T12:21:17;99012.59;;;25.03;36.64
48874;BME280;66155;46.204;5.220;2023-07-13T12:26:19;98998.50;;;24.90;36.67
48874;BME280;66155;46.204;5.220;2023-07-13T12:31:43;99009.59;;;25.04;36.22
48874;BME280;66155;46.204;5.220;2023-07-13T12:36:59;98996.69;;;25.07;35.37
48874;BME280;66155;46.204;5.220;2023-07-13T12:47:20;98995.13;;;25.42;35.85
48874;BME280;66155;46.204;5.220;2023-07-13T12:52:23;98995.34;;;25.37;35.54
48874;BME280;66155;46.204;5.220;2023-07-13T12:57:25;98990.22;;;25.45;35.42
48874;BME280;66155;46.204;5.220;2023-07-13T13:02:30;99001.31;;;25.47;34.74
48874;BME280;66155;46.204;5.220;2023-07-13T13:07:34;98994.00;;;25.72;34.79
48874;BME280;66155;46.204;5.220;2023-07-13T13:12:34;98997.72;;;25.95;34.26
48874;BME280;66155;46.204;5.220;2023-07-13T13:17:35;98988.28;;;26.14;34.18
48874;BME280;66155;46.204;5.220;2023-07-13T13:22:35;98994.41;;;26.30;34.53
48874;BME280;66155;46.204;5.220;2023-07-13T13:27:36;98989.41;;;26.61;34.47
48874;BME280;66155;46.204;5.220;2023-07-13T13:32:37;98998.56;;;26.76;33.43
48874;BME280;66155;46.204;5.220;2023-07-13T13:37:37;98975.19;;;26.72;33.20
48874;BME280;66155;46.204;5.220;2023-07-13T13:42:37;98980.88;;;26.87;33.54
48874;BME280;66155;46.204;5.220;2023-07-13T13:47:38;98987.94;;;27.15;33.46
48874;BME280;66155;46.204;5.220;2023-07-13T13:52:39;98983.44;;;27.35;32.91
48874;BME280;66155;46.204;5.220;2023-07-13T13:57:40;98968.63;;;27.41;33.00
48874;BME280;66155;46.204;5.220;2023-07-13T14:02:42;98970.34;;;27.49;32.64
48874;BME280;66155;46.204;5.220;2023-07-13T14:07:47;98979.31;;;27.80;32.54
48874;BME280;66155;46.204;5.220;2023-07-13T14:12:51;98957.53;;;28.24;32.08
48874;BME280;66155;46.204;5.220;2023-07-13T14:17:53;98956.94;;;28.34;32.03
48874;BME280;66155;46.204;5.220;2023-07-13T14:22:54;98952.69;;;28.83;31.77
48874;BME280;66155;46.204;5.220;2023-07-13T14:27:58;98946.34;;;28.95;31.47
48874;BME280;66155;46.204;5.220;2023-07-13T14:33:10;98954.97;;;28.81;31.70
48874;BME280;66155;46.204;5.220;2023-07-13T14:38:14;98956.78;;;28.73;31.08
48874;BME280;66155;46.204;5.220;2023-07-13T14:43:17;98962.19;;;28.77;31.35
48874;BME280;66155;46.204;5.220;2023-07-13T14:48:22;98959.81;;;28.98;30.75
48874;BME280;66155;46.204;5.220;2023-07-13T14:53:26;98960.09;;;29.20;30.88
48874;BME280;66155;46.204;5.220;2023-07-13T14:58:29;98954.22;;;29.41;30.54
48874;BME280;66155;46.204;5.220;2023-07-13T15:03:29;98948.81;;;29.37;29.96
48874;BME280;66155;46.204;5.220;2023-07-13T15:08:30;98952.66;;;29.40;30.08
48874;BME280;66155;46.204;5.220;2023-07-13T15:13:30;98965.72;;;29.42;29.83
48874;BME280;66155;46.204;5.220;2023-07-13T15:18:31;98955.66;;;29.35;30.54
48874;BME280;66155;46.204;5.220;2023-07-13T15:23:33;98951.06;;;29.69;30.05
48874;BME280;66155;46.204;5.220;2023-07-13T15:28:33;98948.03;;;29.71;29.65
48874;BME280;66155;46.204;5.220;2023-07-13T15:33:34;98938.25;;;29.18;30.01
48874;BME280;66155;46.204;5.220;2023-07-13T15:38:36;98942.88;;;29.55;29.56
48874;BME280;66155;46.204;5.220;2023-07-13T15:43:40;98942.06;;;29.85;29.30
48874;BME280;66155;46.204;5.220;2023-07-13T15:48:41;98942.22;;;29.65;28.81
48874;BME280;66155;46.204;5.220;2023-07-13T15:53:41;98944.50;;;29.67;28.37
48874;BME280;66155;46.204;5.220;2023-07-13T15:58:42;98964.38;;;29.92;28.07
48874;BME280;66155;46.204;5.220;2023-07-13T16:03:42;98941.38;;;29.99;28.21
48874;BME280;66155;46.204;5.220;2023-07-13T16:08:44;98942.28;;;30.10;27.90
48874;BME280;66155;46.204;5.220;2023-07-13T16:13:45;98941.28;;;30.32;27.80
48874;BME280;66155;46.204;5.220;2023-07-13T16:18:46;98938.19;;;30.30;27.70
48874;BME280;66155;46.204;5.220;2023-07-13T16:23:46;98935.19;;;30.36;27.21
48874;BME280;66155;46.204;5.220;2023-07-13T16:28:47;98934.91;;;30.51;27.26
48874;BME280;66155;46.204;5.220;2023-07-13T16:33:48;98935.25;;;30.46;26.92
48874;BME280;66155;46.204;5.220;2023-07-13T16:38:48;98937.88;;;30.36;26.97
48874;BME280;66155;46.204;5.220;2023-07-13T16:43:48;98934.84;;;30.41;27.10
48874;BME280;66155;46.204;5.220;2023-07-13T16:48:49;98929.69;;;30.80;26.87
48874;BME280;66155;46.204;5.220;2023-07-13T16:53:50;98940.66;;;31.16;26.56
48874;BME280;66155;46.204;5.220;2023-07-13T16:58:50;98925.72;;;31.30;26.76
48874;BME280;66155;46.204;5.220;2023-07-13T17:03:51;98926.59;;;31.59;26.57
48874;BME280;66155;46.204;5.220;2023-07-13T17:09:00;98912.34;;;31.80;26.39
48874;BME280;66155;46.204;5.220;2023-07-13T17:14:01;98911.22;;;32.02;25.91
48874;BME280;66155;46.204;5.220;2023-07-13T17:19:11;98891.22;;;32.03;25.80
48874;BME280;66155;46.204;5.220;2023-07-13T17:24:16;98892.75;;;32.12;25.59
48874;BME280;66155;46.204;5.220;2023-07-13T17:29:20;98883.84;;;32.47;25.90
48874;BME280;66155;46.204;5.220;2023-07-13T17:34:20;98888.47;;;32.47;25.78
48874;BME280;66155;46.204;5.220;2023-07-13T17:39:21;98876.56;;;32.26;25.46
48874;BME280;66155;46.204;5.220;2023-07-13T17:44:23;98885.47;;;32.09;25.50
48874;BME280;66155;46.204;5.220;2023-07-13T17:49:25;98873.13;;;32.15;25.34
48874;BME280;66155;46.204;5.220;2023-07-13T17:54:32;98881.97;;;32.22;25.22
48874;BME280;66155;46.204;5.220;2023-07-13T17:59:33;98874.25;;;32.35;25.06
48874;BME280;66155;46.204;5.220;2023-07-13T18:04:34;98872.28;;;32.54;24.60
48874;BME280;66155;46.204;5.220;2023-07-13T18:09:37;98865.94;;;33.00;24.24
48874;BME280;66155;46.204;5.220;2023-07-13T18:14:38;98871.81;;;32.84;24.33
48874;BME280;66155;46.204;5.220;2023-07-13T18:19:41;98878.84;;;32.42;24.76
48874;BME280;66155;46.204;5.220;2023-07-13T18:24:43;98870.78;;;32.28;24.88
48874;BME280;66155;46.204;5.220;2023-07-13T18:29:43;98868.50;;;32.15;25.29
48874;BME280;66155;46.204;5.220;2023-07-13T18:34:45;98888.13;;;32.01;25.75
48874;BME280;66155;46.204;5.220;2023-07-13T18:39:48;98884.28;;;31.70;25.80
48874;BME280;66155;46.204;5.220;2023-07-13T18:44:51;98877.25;;;31.37;26.11
48874;BME280;66155;46.204;5.220;2023-07-13T18:49:51;98870.72;;;31.23;26.16
48874;BME280;66155;46.204;5.220;2023-07-13T18:54:55;98871.44;;;31.10;26.35
48874;BME280;66155;46.204;5.220;2023-07-13T18:59:56;98874.50;;;31.04;26.58
48874;BME280;66155;46.204;5.220;2023-07-13T19:04:56;98870.16;;;30.89;26.92
48874;BME280;66155;46.204;5.220;2023-07-13T19:09:59;98875.84;;;30.69;27.17
48874;BME280;66155;46.204;5.220;2023-07-13T19:15:00;98858.84;;;30.47;27.36
48874;BME280;66155;46.204;5.220;2023-07-13T19:20:02;98870.97;;;30.27;27.91
48874;BME280;66155;46.204;5.220;2023-07-13T19:25:11;98870.41;;;30.00;27.85
48874;BME280;66155;46.204;5.220;2023-07-13T19:30:13;98870.13;;;29.67;28.42
48874;BME280;66155;46.204;5.220;2023-07-13T19:35:14;98866.00;;;29.39;28.45
48874;BME280;66155;46.204;5.220;2023-07-13T19:40:18;98865.44;;;29.19;28.64
48874;BME280;66155;46.204;5.220;2023-07-13T19:45:21;98879.03;;;29.04;29.21
48874;BME280;66155;46.204;5.220;2023-07-13T19:50:22;98881.50;;;28.86;29.16
48874;BME280;66155;46.204;5.220;2023-07-13T19:55:24;98879.34;;;28.68;29.41
48874;BME280;66155;46.204;5.220;2023-07-13T20:00:26;98887.69;;;28.36;29.72
48874;BME280;66155;46.204;5.220;2023-07-13T20:05:27;98899.88;;;28.07;29.94
48874;BME280;66155;46.204;5.220;2023-07-13T20:10:29;98907.38;;;27.78;30.33
48874;BME280;66155;46.204;5.220;2023-07-13T20:15:30;98919.78;;;27.44;30.52
48874;BME280;66155;46.204;5.220;2023-07-13T20:20:34;98915.75;;;26.95;30.73
48874;BME280;66155;46.204;5.220;2023-07-13T20:25:35;98928.97;;;26.72;31.08
48874;BME280;66155;46.204;5.220;2023-07-13T20:30:39;98919.34;;;26.51;31.46
48874;BME280;66155;46.204;5.220;2023-07-13T20:35:41;98921.75;;;26.41;32.23
48874;BME280;66155;46.204;5.220;2023-07-13T20:40:42;98933.63;;;26.43;32.21
48874;BME280;66155;46.204;5.220;2023-07-13T20:45:43;98923.22;;;26.38;32.56
48874;BME280;66155;46.204;5.220;2023-07-13T20:50:44;98931.84;;;26.31;32.95
48874;BME280;66155;46.204;5.220;2023-07-13T20:55:46;98919.19;;;26.28;33.16
48874;BME280;66155;46.204;5.220;2023-07-13T21:00:47;98915.56;;;26.21;33.72
48874;BME280;66155;46.204;5.220;2023-07-13T21:05:47;98918.84;;;26.14;33.77
48874;BME280;66155;46.204;5.220;2023-07-13T21:10:48;98914.19;;;26.11;34.00
48874;BME280;66155;46.204;5.220;2023-07-13T21:15:49;98925.56;;;26.08;34.13
48874;BME280;66155;46.204;5.220;2023-07-13T21:20:51;98929.94;;;26.00;34.46
48874;BME280;66155;46.204;5.220;2023-07-13T21:25:53;98922.41;;;25.90;34.64
48874;BME280;66155;46.204;5.220;2023-07-13T21:30:57;98931.00;;;25.83;34.86
48874;BME280;66155;46.204;5.220;2023-07-13T21:35:59;98917.28;;;25.69;34.92
48874;BME280;66155;46.204;5.220;2023-07-13T21:41:02;98925.81;;;25.58;34.96
48874;BME280;66155;46.204;5.220;2023-07-13T21:46:04;98923.97;;;25.47;35.25
48874;BME280;66155;46.204;5.220;2023-07-13T21:51:15;98920.13;;;25.32;35.40
48874;BME280;66155;46.204;5.220;2023-07-13T21:56:17;98918.81;;;25.26;35.68
48874;BME280;66155;46.204;5.220;2023-07-13T22:01:22;98905.78;;;25.24;35.94
48874;BME280;66155;46.204;5.220;2023-07-13T22:06:31;98912.16;;;25.19;35.89
48874;BME280;66155;46.204;5.220;2023-07-13T22:11:32;98918.25;;;25.20;36.30
48874;BME280;66155;46.204;5.220;2023-07-13T22:16:33;98919.19;;;24.99;36.71
48874;BME280;66155;46.204;5.220;2023-07-13T22:21:34;98905.78;;;24.71;37.61
48874;BME280;66155;46.204;5.220;2023-07-13T22:26:35;98909.66;;;24.12;38.72
48874;BME280;66155;46.204;5.220;2023-07-13T22:31:36;98902.06;;;23.56;39.94
48874;BME280;66155;46.204;5.220;2023-07-13T22:36:37;98902.63;;;23.28;40.38
48874;BME280;66155;46.204;5.220;2023-07-13T22:41:37;98924.94;;;22.85;42.42
48874;BME280;66155;46.204;5.220;2023-07-13T22:46:38;98926.66;;;22.60;42.73
48874;BME280;66155;46.204;5.220;2023-07-13T22:51:38;98923.63;;;22.40;43.08
48874;BME280;66155;46.204;5.220;2023-07-13T22:56:38;98920.81;;;22.37;43.09
48874;BME280;66155;46.204;5.220;2023-07-13T23:01:40;98913.00;;;22.40;43.13
48874;BME280;66155;46.204;5.220;2023-07-13T23:06:42;98914.84;;;22.40;43.05
48874;BME280;66155;46.204;5.220;2023-07-13T23:11:43;98909.69;;;22.44;42.30
48874;BME280;66155;46.204;5.220;2023-07-13T23:16:43;98917.16;;;22.50;42.74
48874;BME280;66155;46.204;5.220;2023-07-13T23:21:50;98913.00;;;22.40;43.32
48874;BME280;66155;46.204;5.220;2023-07-13T23:26:51;98892.69;;;22.36;43.50
48874;BME280;66155;46.204;5.220;2023-07-13T23:31:52;98894.28;;;22.37;43.73
48874;BME280;66155;46.204;5.220;2023-07-13T23:36:52;98890.00;;;22.45;43.61
48874;BME280;66155;46.204;5.220;2023-07-13T23:41:53;98888.34;;;22.61;43.46
48874;BME280;66155;46.204;5.220;2023-07-13T23:46:53;98893.31;;;22.71;43.53
48874;BME280;66155;46.204;5.220;2023-07-13T23:51:58;98875.03;;;22.70;43.85
48874;BME280;66155;46.204;5.220;2023-07-13T23:56:59;98861.13;;;22.73;44.12
